Time;durP1;ratioP1;P1;durP2;ratioP2;P2;SDS_P1;SDS_P2;PMS_P1;PMS_P2;Temp;Humidity;BMP_temperature;BMP_pressure;BME280_temperature;BME280_humidity;BME280_pressure;Samples;Min_cycle;Max_cycle;Signal;HPM_P1;HPM_P2
2021/09/21 00:00:38;;;;;;;1.20;0.87;;;15.50;99.90;;;;;;5029391;28;20457;-76
2021/09/21 00:03:04;;;;;;;0.80;0.80;;;15.50;99.90;;;;;;5027734;28;20238;-76
2021/09/21 00:05:30;;;;;;;0.97;0.77;;;15.50;99.90;;;;;;5030316;28;20168;-76
2021/09/21 00:07:56;;;;;;;1.40;0.90;;;15.50;99.90;;;;;;5030378;28;20183;-76
2021/09/21 00:10:21;;;;;;;1.00;0.70;;;15.50;99.90;;;;;;5030695;28;20438;-77
2021/09/21 00:12:47;;;;;;;0.87;0.77;;;15.60;99.90;;;;;;5034126;28;20211;-77
2021/09/21 00:15:14;;;;;;;1.33;1.10;;;15.50;99.90;;;;;;5030930;28;20214;-76
2021/09/21 00:17:41;;;;;;;5.17;1.10;;;15.50;99.90;;;;;;5032506;28;20179;-76
2021/09/21 00:20:08;;;;;;;0.97;0.70;;;15.50;99.90;;;;;;5035075;28;20438;-76
2021/09/21 00:22:33;;;;;;;0.87;0.77;;;15.50;99.90;;;;;;5034764;28;20962;-75
2021/09/21 00:24:59;;;;;;;1.13;1.03;;;15.50;99.90;;;;;;5034234;28;20430;-77
2021/09/21 00:27:25;;;;;;;0.80;0.80;;;15.50;99.90;;;;;;5021253;28;20182;-76
2021/09/21 00:29:51;;;;;;;1.23;1.00;;;15.50;99.90;;;;;;5033514;28;20713;-75
2021/09/21 00:32:19;;;;;;;1.23;1.13;;;15.50;99.90;;;;;;5034624;28;20210;-75
2021/09/21 00:34:45;;;;;;;1.50;0.73;;;15.50;99.90;;;;;;5035100;28;20421;-76
2021/09/21 00:37:13;;;;;;;0.80;0.70;;;15.50;99.90;;;;;;5028404;28;20441;-76
2021/09/21 00:39:40;;;;;;;1.03;0.93;;;15.50;99.90;;;;;;5033684;28;20434;-76
2021/09/21 00:42:06;;;;;;;0.90;0.70;;;15.50;99.90;;;;;;5023460;28;20501;-77
2021/09/21 00:44:32;;;;;;;1.40;1.30;;;15.50;99.90;;;;;;5015703;28;20451;-76
2021/09/21 00:46:58;;;;;;;5.40;1.90;;;15.50;99.90;;;;;;5034139;28;20458;-77
2021/09/21 00:49:23;;;;;;;3.40;0.73;;;15.50;99.90;;;;;;5036854;28;20958;-77
2021/09/21 00:51:49;;;;;;;1.30;0.90;;;15.50;99.90;;;;;;5034217;28;20211;-76
2021/09/21 00:54:15;;;;;;;1.40;1.30;;;15.50;99.90;;;;;;5036977;28;20414;-77
2021/09/21 00:56:41;;;;;;;1.00;0.80;;;15.50;99.90;;;;;;5028082;28;20172;-76
2021/09/21 00:59:06;;;;;;;2.40;0.93;;;15.50;99.90;;;;;;5029756;28;20205;-76
2021/09/21 01:01:32;;;;;;;1.13;1.00;;;15.50;99.90;;;;;;5031016;28;20457;-76
2021/09/21 01:04:00;;;;;;;1.23;0.90;;;15.50;99.90;;;;;;5031930;28;20184;-76
2021/09/21 01:06:25;;;;;;;0.77;0.67;;;15.50;99.90;;;;;;5034559;28;20557;-76
2021/09/21 01:08:51;;;;;;;2.00;1.33;;;15.50;99.90;;;;;;5034689;28;20939;-76
2021/09/21 01:11:17;;;;;;;1.70;1.60;;;15.50;99.90;;;;;;5033980;28;20281;-76
2021/09/21 01:13:42;;;;;;;1.10;0.70;;;15.50;99.90;;;;;;5034091;28;20191;-76
2021/09/21 01:16:08;;;;;;;0.80;0.70;;;15.40;99.90;;;;;;5033859;28;20637;-76
2021/09/21 01:18:35;;;;;;;4.80;2.37;;;15.40;99.90;;;;;;5030176;28;20692;-76
2021/09/21 01:21:10;;;;;;;0.80;0.60;;;15.40;99.90;;;;;;5032549;28;20460;-76
2021/09/21 01:23:52;;;;;;;1.30;0.90;;;15.40;99.90;;;;;;5014465;28;20470;-77
2021/09/21 01:26:19;;;;;;;0.80;0.70;;;15.40;99.90;;;;;;5030912;28;20450;-77
2021/09/21 01:28:46;;;;;;;1.00;0.90;;;15.40;99.90;;;;;;5030567;28;20430;-77
2021/09/21 01:31:12;;;;;;;0.80;0.80;;;15.40;99.90;;;;;;5032514;28;20441;-77
2021/09/21 01:33:38;;;;;;;1.13;1.03;;;15.40;99.90;;;;;;5033019;28;20430;-77
2021/09/21 01:36:04;;;;;;;1.47;1.37;;;15.30;99.90;;;;;;5034378;28;20802;-77
2021/09/21 01:38:30;;;;;;;2.20;1.90;;;15.30;99.90;;;;;;5034518;28;20418;-77
2021/09/21 01:40:56;;;;;;;0.77;0.60;;;15.30;99.90;;;;;;5031980;28;20460;-77
2021/09/21 01:43:22;;;;;;;2.13;2.03;;;15.30;99.90;;;;;;5032896;28;20470;-76
2021/09/21 01:45:48;;;;;;;1.60;1.10;;;15.30;99.90;;;;;;5021449;28;20180;-77
2021/09/21 01:48:14;;;;;;;0.80;0.60;;;15.30;99.90;;;;;;5032349;28;20430;-77
2021/09/21 01:50:55;;;;;;;0.87;0.80;;;15.30;99.90;;;;;;5030609;28;20450;-76
2021/09/21 02:01:07;;;;;;;1.00;0.80;;;15.20;99.90;;;;;;5030358;28;20890;-77
2021/09/21 02:03:34;;;;;;;0.80;0.50;;;15.20;99.90;;;;;;5033826;28;20532;-77
2021/09/21 02:06:00;;;;;;;1.77;0.90;;;15.20;99.90;;;;;;5033650;28;20183;-77
2021/09/21 02:08:25;;;;;;;0.80;0.63;;;15.20;99.90;;;;;;5034139;28;20402;-77
2021/09/21 02:10:51;;;;;;;1.40;1.17;;;15.20;99.90;;;;;;5033866;28;20226;-77
2021/09/21 02:13:17;;;;;;;2.33;2.23;;;15.10;99.90;;;;;;5033867;28;20168;-77
2021/09/21 02:15:42;;;;;;;0.80;0.70;;;15.10;99.90;;;;;;5032832;28;20180;-78
2021/09/21 02:18:08;;;;;;;0.90;0.70;;;15.10;99.90;;;;;;5033197;28;20175;-77
2021/09/21 02:20:34;;;;;;;0.70;0.50;;;15.10;99.90;;;;;;5030330;28;20203;-77
2021/09/21 02:22:59;;;;;;;1.63;1.33;;;15.10;99.90;;;;;;5032404;28;20796;-77
2021/09/21 02:25:25;;;;;;;1.03;0.93;;;15.10;99.90;;;;;;5033358;28;20221;-77
2021/09/21 02:27:51;;;;;;;1.57;1.17;;;15.10;99.90;;;;;;5032414;28;20190;-77
2021/09/21 02:30:16;;;;;;;0.80;0.77;;;15.10;99.90;;;;;;5029602;28;20564;-77
2021/09/21 02:32:42;;;;;;;1.67;1.30;;;15.10;99.90;;;;;;5035115;28;20207;-77
2021/09/21 02:35:08;;;;;;;1.10;1.00;;;15.10;99.90;;;;;;5021858;28;20178;-78
2021/09/21 02:37:34;;;;;;;1.10;0.70;;;15.10;99.90;;;;;;5027731;28;20501;-77
2021/09/21 02:40:00;;;;;;;1.77;0.70;;;15.10;99.90;;;;;;5035315;28;20191;-77
2021/09/21 02:42:26;;;;;;;1.00;0.90;;;15.10;99.90;;;;;;5035236;28;20195;-78
2021/09/21 02:44:52;;;;;;;0.90;0.70;;;15.00;99.90;;;;;;5032281;28;20526;-77
2021/09/21 02:47:18;;;;;;;1.67;1.50;;;15.00;99.90;;;;;;5026688;28;20517;-76
2021/09/21 02:49:43;;;;;;;2.70;0.70;;;15.00;99.90;;;;;;5031793;28;20876;-77
2021/09/21 02:52:09;;;;;;;6.30;1.03;;;15.00;99.90;;;;;;5031865;28;20246;-77
2021/09/21 02:54:35;;;;;;;0.80;0.70;;;15.00;99.90;;;;;;5031961;28;20180;-77
2021/09/21 02:57:00;;;;;;;1.63;0.87;;;15.00;99.90;;;;;;5035346;28;20241;-77
2021/09/21 02:59:26;;;;;;;1.10;0.70;;;15.00;99.90;;;;;;5029970;28;20717;-78
2021/09/21 03:01:52;;;;;;;3.43;1.00;;;15.00;99.90;;;;;;5035298;28;20249;-78
2021/09/21 03:04:34;;;;;;;1.70;1.37;;;15.00;99.90;;;;;;5034878;28;20163;-78
2021/09/21 03:07:05;;;;;;;0.80;0.70;;;15.00;99.90;;;;;;5031479;28;20469;-77
2021/09/21 03:17:27;;;;;;;1.20;0.80;;;14.90;99.90;;;;;;5034343;28;20910;-77
2021/09/21 03:19:56;;;;;;;0.80;0.70;;;14.90;99.90;;;;;;5028000;28;20426;-77
2021/09/21 03:22:22;;;;;;;0.80;0.70;;;14.90;99.90;;;;;;5031055;28;20206;-77
2021/09/21 03:24:49;;;;;;;1.37;0.83;;;14.90;99.90;;;;;;5019212;28;20429;-76
2021/09/21 03:27:15;;;;;;;0.70;0.60;;;14.90;99.90;;;;;;5032155;28;20457;-77
2021/09/21 03:29:40;;;;;;;0.90;0.73;;;14.90;99.90;;;;;;5026788;28;20431;-76
2021/09/21 03:32:06;;;;;;;1.13;1.03;;;14.90;99.90;;;;;;5015280;28;20609;-76
2021/09/21 03:34:32;;;;;;;2.20;1.00;;;14.80;99.90;;;;;;5029352;28;20179;-77
2021/09/21 03:36:58;;;;;;;1.17;0.77;;;14.80;99.90;;;;;;5031992;28;20169;-76
2021/09/21 03:39:24;;;;;;;0.70;0.50;;;14.80;99.90;;;;;;5030312;28;20820;-77
2021/09/21 03:41:50;;;;;;;1.10;0.90;;;14.80;99.90;;;;;;5031299;28;20453;-77
2021/09/21 03:44:15;;;;;;;2.47;1.67;;;14.80;99.90;;;;;;5031111;28;20208;-77
2021/09/21 03:46:41;;;;;;;4.00;2.03;;;14.80;99.90;;;;;;5025698;28;20622;-76
2021/09/21 03:49:07;;;;;;;1.10;0.80;;;14.80;99.90;;;;;;5026168;28;20175;-76
2021/09/21 03:51:32;;;;;;;0.90;0.73;;;14.80;99.90;;;;;;5031325;28;20199;-76
2021/09/21 03:53:58;;;;;;;1.03;0.93;;;14.70;99.90;;;;;;5032000;28;20191;-76
2021/09/21 03:56:23;;;;;;;1.53;1.43;;;14.60;99.90;;;;;;5030008;28;20211;-76
2021/09/21 03:58:49;;;;;;;0.80;0.60;;;14.60;99.90;;;;;;5030107;28;20191;-77
2021/09/21 04:01:14;;;;;;;0.77;0.63;;;14.60;99.90;;;;;;5029268;28;20210;-76
2021/09/21 04:03:40;;;;;;;2.10;1.57;;;14.60;99.90;;;;;;5030762;28;20207;-76
2021/09/21 04:06:06;;;;;;;2.60;1.03;;;14.50;99.90;;;;;;5030458;28;20171;-76
2021/09/21 04:08:31;;;;;;;1.30;1.07;;;14.50;99.90;;;;;;5031191;28;20637;-76
2021/09/21 04:10:57;;;;;;;1.10;0.90;;;14.50;99.90;;;;;;5027725;28;20195;-77
2021/09/21 04:13:22;;;;;;;1.00;0.90;;;14.50;99.90;;;;;;5031283;28;20183;-77
2021/09/21 04:15:48;;;;;;;0.70;0.50;;;14.50;99.90;;;;;;5028062;28;20203;-77
2021/09/21 04:18:13;;;;;;;0.80;0.70;;;14.50;99.90;;;;;;5031121;28;20176;-76
2021/09/21 04:20:39;;;;;;;0.80;0.70;;;14.50;99.90;;;;;;5015722;28;20204;-76
2021/09/21 04:23:04;;;;;;;1.13;0.90;;;14.50;99.90;;;;;;5018835;28;20203;-76
2021/09/21 04:25:31;;;;;;;1.97;1.00;;;14.50;99.90;;;;;;5030702;28;20167;-76
2021/09/21 04:27:57;;;;;;;2.13;1.03;;;14.50;99.90;;;;;;5031737;28;20247;-77
2021/09/21 04:30:23;;;;;;;1.37;1.27;;;14.50;99.90;;;;;;5027583;28;20442;-77
2021/09/21 04:32:49;;;;;;;0.80;0.70;;;14.50;99.90;;;;;;5030017;28;20438;-76
2021/09/21 04:35:15;;;;;;;1.23;0.90;;;14.50;99.90;;;;;;5023320;28;20176;-76
2021/09/21 04:37:41;;;;;;;1.90;1.13;;;14.40;99.90;;;;;;5029825;28;20464;-77
2021/09/21 04:40:07;;;;;;;1.00;0.90;;;14.50;99.90;;;;;;5030368;28;20431;-76
2021/09/21 04:42:33;;;;;;;0.80;0.60;;;14.50;99.90;;;;;;5029566;28;20306;-76
2021/09/21 04:44:59;;;;;;;1.10;0.80;;;14.50;99.90;;;;;;5030525;28;20919;-77
2021/09/21 04:47:25;;;;;;;0.70;0.50;;;14.40;99.90;;;;;;5023603;28;20521;-76
2021/09/21 04:49:50;;;;;;;0.80;0.70;;;14.40;99.90;;;;;;5025797;28;20171;-77
2021/09/21 04:52:17;;;;;;;0.80;0.67;;;14.40;99.90;;;;;;5030843;28;20203;-76
2021/09/21 04:54:43;;;;;;;0.97;0.80;;;14.50;99.90;;;;;;5030113;28;20414;-76
2021/09/21 04:57:09;;;;;;;1.03;0.90;;;14.50;99.90;;;;;;5031036;28;20461;-76
2021/09/21 04:59:35;;;;;;;3.43;2.10;;;14.50;99.90;;;;;;5028926;28;20446;-76
2021/09/21 05:02:00;;;;;;;3.37;1.03;;;14.50;99.90;;;;;;5031224;28;20489;-76
2021/09/21 05:04:26;;;;;;;3.17;0.90;;;14.50;99.90;;;;;;5030559;28;20536;-77
2021/09/21 05:06:51;;;;;;;2.03;1.47;;;14.50;99.90;;;;;;5034649;28;20267;-76
2021/09/21 05:09:17;;;;;;;0.80;0.60;;;14.40;99.90;;;;;;5034340;28;20172;-77
2021/09/21 05:11:45;;;;;;;0.80;0.63;;;14.40;99.90;;;;;;5030593;28;20716;-76
2021/09/21 05:14:11;;;;;;;1.90;1.27;;;14.40;99.90;;;;;;5030815;28;20176;-76
2021/09/21 05:16:37;;;;;;;0.87;0.80;;;14.40;99.90;;;;;;5033638;28;20492;-76
2021/09/21 05:19:03;;;;;;;1.53;1.43;;;14.40;99.90;;;;;;5033568;28;20426;-76
2021/09/21 05:21:29;;;;;;;1.30;1.20;;;14.40;99.90;;;;;;5034520;28;20614;-76
2021/09/21 05:23:54;;;;;;;0.90;0.67;;;14.40;99.90;;;;;;5029525;28;20683;-76
2021/09/21 05:26:20;;;;;;;1.03;0.97;;;14.40;99.90;;;;;;5030189;28;20429;-76
2021/09/21 05:28:46;;;;;;;4.00;1.73;;;14.40;99.90;;;;;;5033828;28;20164;-76
2021/09/21 05:31:12;;;;;;;0.70;0.50;;;14.30;99.90;;;;;;5031540;28;20461;-76
2021/09/21 05:33:37;;;;;;;0.70;0.60;;;14.30;99.90;;;;;;5030590;28;20218;-77
2021/09/21 05:36:03;;;;;;;0.97;0.60;;;14.30;99.90;;;;;;5034145;28;20289;-77
2021/09/21 05:38:30;;;;;;;0.70;0.60;;;14.30;99.90;;;;;;5029450;28;20173;-77
2021/09/21 05:40:55;;;;;;;1.63;1.00;;;14.30;99.90;;;;;;5025026;28;20454;-76
2021/09/21 05:43:21;;;;;;;1.40;1.30;;;14.30;99.90;;;;;;5033316;28;20484;-76
2021/09/21 05:45:46;;;;;;;0.80;0.80;;;14.20;99.90;;;;;;5027052;28;20690;-76
2021/09/21 05:48:12;;;;;;;1.07;0.80;;;14.20;99.90;;;;;;5034033;28;20202;-77
2021/09/21 05:50:37;;;;;;;3.23;1.93;;;14.20;99.90;;;;;;5031366;28;20203;-77
2021/09/21 05:53:03;;;;;;;1.77;1.10;;;14.30;99.90;;;;;;5024860;28;20250;-76
2021/09/21 05:55:29;;;;;;;1.13;0.90;;;14.30;99.90;;;;;;5027938;28;20176;-76
2021/09/21 05:57:55;;;;;;;0.80;0.50;;;14.30;99.90;;;;;;5030826;28;20198;-76
2021/09/21 06:00:21;;;;;;;1.00;0.90;;;14.30;99.90;;;;;;5024078;28;20180;-76
2021/09/21 06:02:47;;;;;;;1.27;1.17;;;14.40;99.90;;;;;;5032459;28;20449;-76
2021/09/21 06:05:13;;;;;;;2.17;1.97;;;14.40;99.90;;;;;;5032705;28;20199;-76
2021/09/21 06:07:46;;;;;;;1.70;0.87;;;14.50;99.90;;;;;;5033130;28;20170;-76
2021/09/21 06:10:12;;;;;;;1.87;0.70;;;14.50;99.90;;;;;;5021317;28;20926;-76
2021/09/21 06:12:37;;;;;;;0.90;0.80;;;14.50;99.90;;;;;;5026800;28;20508;-76
2021/09/21 06:15:04;;;;;;;1.33;0.70;;;14.40;99.90;;;;;;5031688;28;20198;-76
2021/09/21 06:17:29;;;;;;;1.30;0.87;;;14.40;99.90;;;;;;5032399;28;20179;-76
2021/09/21 06:19:55;;;;;;;1.00;0.70;;;14.50;99.90;;;;;;5031461;28;20755;-76
2021/09/21 06:22:20;;;;;;;0.97;0.63;;;14.50;99.90;;;;;;5031315;28;20210;-76
2021/09/21 06:24:46;;;;;;;4.70;1.07;;;14.50;99.90;;;;;;5031828;28;20270;-76
2021/09/21 06:27:11;;;;;;;1.17;0.87;;;14.50;99.90;;;;;;5030226;28;20180;-77
2021/09/21 06:29:37;;;;;;;0.90;0.70;;;14.50;99.90;;;;;;5025474;28;20172;-76
2021/09/21 06:32:03;;;;;;;0.80;0.60;;;14.50;99.90;;;;;;5031482;28;20196;-76
2021/09/21 06:34:28;;;;;;;0.70;0.60;;;14.50;99.90;;;;;;5025949;28;20253;-76
2021/09/21 06:36:54;;;;;;;0.83;0.83;;;14.50;99.90;;;;;;5017418;28;20458;-76
2021/09/21 06:39:22;;;;;;;0.70;0.53;;;14.60;99.90;;;;;;5031726;28;20225;-76
2021/09/21 06:41:48;;;;;;;1.00;0.90;;;14.60;99.90;;;;;;5032995;28;20284;-76
2021/09/21 06:44:13;;;;;;;0.70;0.60;;;14.60;99.90;;;;;;5040032;28;20480;-76
2021/09/21 06:46:39;;;;;;;0.70;0.50;;;14.70;99.90;;;;;;5032767;28;20640;-76
2021/09/21 06:49:04;;;;;;;0.70;0.57;;;14.80;99.90;;;;;;5032300;28;20167;-76
2021/09/21 06:51:31;;;;;;;0.70;0.50;;;14.80;99.90;;;;;;5031858;28;20219;-76
2021/09/21 06:53:57;;;;;;;1.57;1.47;;;14.90;99.90;;;;;;5032812;28;20532;-76
2021/09/21 06:56:28;;;;;;;0.80;0.60;;;14.90;99.90;;;;;;5029315;28;20439;-76
2021/09/21 06:58:55;;;;;;;1.93;1.30;;;15.00;99.90;;;;;;5023562;28;20825;-77
2021/09/21 07:01:21;;;;;;;0.80;0.60;;;15.10;99.90;;;;;;5030702;28;21049;-76
2021/09/21 07:03:46;;;;;;;3.30;3.13;;;15.20;99.90;;;;;;5032165;28;20489;-77
2021/09/21 07:06:12;;;;;;;0.90;0.60;;;15.20;99.90;;;;;;5027706;28;20262;-77
2021/09/21 07:08:38;;;;;;;1.10;0.67;;;15.30;99.90;;;;;;5017136;28;20179;-77
2021/09/21 07:11:03;;;;;;;0.80;0.70;;;15.30;99.90;;;;;;5030105;28;20218;-77
2021/09/21 07:13:29;;;;;;;0.80;0.60;;;15.40;99.90;;;;;;5032100;28;20238;-76
2021/09/21 07:15:54;;;;;;;1.67;1.13;;;15.40;99.90;;;;;;5029831;28;20191;-77
2021/09/21 07:18:20;;;;;;;1.10;0.90;;;15.50;99.90;;;;;;5018125;28;20191;-77
2021/09/21 07:20:45;;;;;;;2.30;1.77;;;15.60;99.90;;;;;;5026654;28;20257;-77
2021/09/21 07:23:11;;;;;;;1.20;1.07;;;15.70;99.90;;;;;;5029507;28;20574;-77
2021/09/21 07:25:36;;;;;;;1.00;0.80;;;15.80;99.90;;;;;;5031371;28;20199;-76
2021/09/21 07:28:03;;;;;;;1.40;0.80;;;15.80;99.90;;;;;;5031771;28;20591;-76
2021/09/21 07:30:30;;;;;;;0.90;0.70;;;15.90;99.90;;;;;;5029154;28;20237;-77
2021/09/21 07:32:56;;;;;;;0.80;0.50;;;15.90;99.90;;;;;;5030928;28;20438;-77
2021/09/21 07:35:21;;;;;;;1.17;1.07;;;15.90;99.90;;;;;;5027902;28;20469;-77
2021/09/21 07:37:47;;;;;;;0.90;0.70;;;16.00;99.90;;;;;;5029798;28;20183;-76
2021/09/21 07:40:13;;;;;;;0.80;0.60;;;16.10;99.90;;;;;;5030378;28;20210;-77
2021/09/21 07:42:38;;;;;;;1.10;1.00;;;16.20;99.90;;;;;;5031992;28;20613;-76
2021/09/21 07:45:06;;;;;;;1.10;0.80;;;16.30;99.90;;;;;;5030555;28;20183;-77
2021/09/21 07:47:31;;;;;;;1.33;0.80;;;16.50;99.90;;;;;;5032007;28;20167;-77
2021/09/21 07:49:59;;;;;;;1.30;0.90;;;16.60;99.90;;;;;;5029094;28;20453;-77
2021/09/21 07:52:24;;;;;;;0.80;0.60;;;16.70;99.90;;;;;;5030426;28;20704;-77
2021/09/21 07:54:50;;;;;;;3.33;2.70;;;16.90;99.90;;;;;;5029308;28;20431;-77
2021/09/21 07:57:16;;;;;;;0.83;0.60;;;17.00;99.90;;;;;;5029068;28;20653;-78
2021/09/21 07:59:42;;;;;;;0.90;0.80;;;17.10;99.90;;;;;;5028462;28;20377;-78
2021/09/21 08:02:12;;;;;;;0.83;0.67;;;17.50;99.90;;;;;;5028841;28;20207;-78
2021/09/21 08:04:38;;;;;;;1.03;0.90;;;18.10;99.90;;;;;;5031770;28;20442;-78
2021/09/21 08:07:07;;;;;;;1.90;1.23;;;18.60;99.90;;;;;;5032137;28;20448;-78
2021/09/21 08:09:33;;;;;;;1.00;0.60;;;19.20;99.90;;;;;;5028067;28;20823;-78
2021/09/21 08:11:59;;;;;;;0.80;0.60;;;20.00;99.90;;;;;;5023440;28;20495;-78
2021/09/21 08:14:24;;;;;;;1.87;0.97;;;20.50;99.90;;;;;;5026749;28;20437;-78
2021/09/21 08:16:50;;;;;;;0.90;0.70;;;21.20;99.90;;;;;;5023833;28;20198;-78
2021/09/21 08:19:15;;;;;;;0.90;0.60;;;21.70;99.90;;;;;;5026461;28;20702;-76
2021/09/21 08:21:41;;;;;;;0.90;0.70;;;22.10;99.90;;;;;;5028574;28;20211;-77
2021/09/21 08:24:07;;;;;;;1.10;0.83;;;22.60;99.90;;;;;;5025467;28;20208;-77
2021/09/21 08:26:33;;;;;;;1.00;0.90;;;23.10;99.90;;;;;;5030502;28;20171;-77
2021/09/21 08:28:59;;;;;;;1.13;0.63;;;23.60;99.90;;;;;;5031368;28;20702;-77
2021/09/21 08:31:24;;;;;;;1.60;0.73;;;24.10;95.80;;;;;;5028461;28;20579;-77
2021/09/21 08:33:50;;;;;;;0.90;0.70;;;24.30;83.70;;;;;;5029584;28;20249;-77
2021/09/21 08:36:16;;;;;;;1.13;0.77;;;24.80;88.20;;;;;;5031160;28;20843;-77
2021/09/21 08:38:43;;;;;;;1.10;1.00;;;25.40;83.20;;;;;;5032249;28;20682;-76
2021/09/21 08:41:09;;;;;;;0.80;0.60;;;26.00;75.90;;;;;;5034537;28;20450;-77
2021/09/21 08:43:34;;;;;;;1.17;0.97;;;26.50;72.60;;;;;;5035948;28;20955;-77
2021/09/21 08:46:00;;;;;;;1.83;1.00;;;26.90;68.50;;;;;;5033868;28;20172;-77
2021/09/21 08:48:26;;;;;;;1.30;1.00;;;27.10;67.70;;;;;;5030356;28;20195;-77
2021/09/21 08:50:52;;;;;;;0.90;0.70;;;27.40;64.00;;;;;;5035573;28;20724;-77
2021/09/21 08:53:18;;;;;;;1.23;0.63;;;27.70;60.80;;;;;;5034158;28;20499;-77
2021/09/21 08:55:43;;;;;;;1.00;0.83;;;27.90;56.90;;;;;;5034906;28;20838;-77
2021/09/21 08:58:09;;;;;;;1.10;0.83;;;27.90;58.20;;;;;;5028498;28;20199;-77
2021/09/21 09:00:35;;;;;;;0.90;0.80;;;28.10;57.90;;;;;;5027281;28;20187;-78
2021/09/21 09:03:12;;;;;;;1.97;1.60;;;28.20;55.30;;;;;;5034305;28;20211;-77
2021/09/21 09:06:04;;;;;;;1.13;0.80;;;28.30;55.30;;;;;;5035374;28;20455;-78
2021/09/21 09:08:35;;;;;;;1.20;0.73;;;28.50;56.70;;;;;;5034335;28;20430;-78
2021/09/21 09:11:12;;;;;;;1.20;1.10;;;28.90;57.60;;;;;;5034968;28;20441;-78
2021/09/21 09:13:38;;;;;;;0.90;0.70;;;29.20;54.80;;;;;;5035370;28;20422;-78
2021/09/21 09:16:13;;;;;;;0.90;0.80;;;29.40;53.70;;;;;;5034490;28;20430;-78
2021/09/21 09:18:40;;;;;;;0.90;0.80;;;29.40;52.80;;;;;;5027530;28;20171;-78
2021/09/21 09:21:05;;;;;;;2.83;1.00;;;29.50;50.10;;;;;;5027404;28;20449;-77
2021/09/21 09:23:32;;;;;;;1.50;1.10;;;29.60;52.10;;;;;;5032441;28;20461;-77
2021/09/21 09:25:58;;;;;;;1.00;0.70;;;29.50;50.30;;;;;;5031795;28;20173;-78
2021/09/21 09:28:27;;;;;;;1.23;0.70;;;29.40;51.10;;;;;;5030324;28;20476;-77
2021/09/21 09:30:55;;;;;;;1.00;0.77;;;28.20;48.30;;;;;;5027852;28;20476;-78
2021/09/21 09:33:21;;;;;;;1.73;1.03;;;28.20;50.70;;;;;;5036445;28;20430;-78
2021/09/21 09:35:50;;;;;;;0.97;0.70;;;28.30;50.30;;;;;;5032555;28;20445;-78
2021/09/21 09:38:19;;;;;;;1.40;0.90;;;28.40;51.20;;;;;;5038038;28;20470;-78
2021/09/21 09:40:53;;;;;;;1.20;0.87;;;28.50;48.30;;;;;;5039203;28;21009;-78
2021/09/21 09:43:22;;;;;;;1.37;0.80;;;28.60;49.50;;;;;;5023281;28;20829;-78
2021/09/21 09:45:50;;;;;;;0.87;0.60;;;28.70;49.70;;;;;;5038368;28;20434;-78
2021/09/21 09:48:18;;;;;;;0.90;0.70;;;28.60;49.10;;;;;;5039064;28;20434;-78
2021/09/21 09:50:45;;;;;;;1.23;0.93;;;28.60;49.50;;;;;;5029895;28;20497;-79
2021/09/21 09:53:23;;;;;;;2.33;1.63;;;29.00;51.00;;;;;;5033136;28;20450;-79
2021/09/21 09:55:57;;;;;;;0.93;0.70;;;29.20;49.10;;;;;;5033296;28;20426;-79
2021/09/21 09:58:23;;;;;;;0.80;0.70;;;28.80;47.00;;;;;;5031065;28;20442;-78
2021/09/21 10:00:49;;;;;;;1.57;1.47;;;28.70;48.70;;;;;;5026118;28;20473;-79
2021/09/21 10:03:15;;;;;;;0.80;0.60;;;28.40;46.70;;;;;;5026952;28;20490;-78
2021/09/21 10:05:42;;;;;;;1.10;1.00;;;28.50;48.40;;;;;;5030116;28;20810;-78
2021/09/21 10:08:08;;;;;;;1.00;0.90;;;28.60;49.50;;;;;;5029940;28;20431;-79
2021/09/21 10:10:37;;;;;;;1.10;0.97;;;29.00;48.90;;;;;;5033816;28;20422;-79
2021/09/21 10:13:06;;;;;;;1.00;0.90;;;29.20;49.80;;;;;;5037838;28;20572;-79
2021/09/21 10:15:32;;;;;;;1.00;0.80;;;29.10;47.30;;;;;;5028294;28;20814;-78
2021/09/21 10:17:58;;;;;;;0.90;0.70;;;28.80;47.40;;;;;;5023345;28;20430;-79
2021/09/21 10:20:35;;;;;;;1.00;0.77;;;29.00;47.30;;;;;;5026395;28;20426;-80
2021/09/21 10:23:05;;;;;;;1.23;0.80;;;29.20;49.20;;;;;;5035406;28;20886;-79
2021/09/21 10:25:34;;;;;;;0.83;0.63;;;29.60;49.70;;;;;;5036391;28;20402;-79
2021/09/21 10:28:00;;;;;;;0.90;0.63;;;29.90;47.50;;;;;;5038440;28;20417;-79
2021/09/21 10:30:29;;;;;;;4.77;1.53;;;29.80;46.60;;;;;;5035280;28;20422;-77
2021/09/21 10:32:56;;;;;;;1.00;0.90;;;29.50;45.00;;;;;;5031582;28;20433;-79
2021/09/21 10:35:31;;;;;;;1.00;0.90;;;30.10;48.20;;;;;;5033604;28;20970;-80
2021/09/21 10:37:59;;;;;;;0.90;0.70;;;30.50;46.50;;;;;;5035049;28;20430;-80
2021/09/21 10:40:41;;;;;;;1.00;0.90;;;30.60;47.60;;;;;;5038252;28;20406;-80
2021/09/21 10:43:32;;;;;;;1.00;0.70;;;30.50;46.20;;;;;;5036581;28;20516;-79
2021/09/21 10:46:16;;;;;;;1.27;1.17;;;30.80;46.30;;;;;;5030443;28;20442;-79
2021/09/21 10:48:45;;;;;;;1.37;1.17;;;31.00;47.10;;;;;;5038753;28;20490;-80
2021/09/21 10:51:11;;;;;;;0.90;0.70;;;30.70;45.80;;;;;;5033455;28;20450;-80
2021/09/21 10:53:37;;;;;;;1.53;1.43;;;30.70;47.60;;;;;;5017294;28;20854;-79
2021/09/21 10:56:04;;;;;;;1.53;1.23;;;30.70;46.40;;;;;;5031636;28;20437;-79
2021/09/21 10:58:31;;;;;;;0.90;0.77;;;31.00;47.20;;;;;;5036631;28;20179;-79
2021/09/21 11:00:57;;;;;;;1.67;0.87;;;30.60;44.10;;;;;;5030033;28;20451;-79
2021/09/21 11:03:25;;;;;;;1.00;0.73;;;29.20;43.40;;;;;;5027659;28;20458;-78
2021/09/21 11:05:52;;;;;;;0.90;0.70;;;28.80;44.60;;;;;;5016190;28;20426;-79
2021/09/21 11:08:18;;;;;;;0.80;0.60;;;28.30;46.70;;;;;;5036556;28;20945;-79
2021/09/21 11:10:48;;;;;;;1.27;1.17;;;27.90;47.10;;;;;;5032531;28;20434;-79
2021/09/21 11:13:17;;;;;;;0.90;0.60;;;27.40;47.30;;;;;;5035302;28;20267;-79
2021/09/21 11:15:44;;;;;;;1.50;1.33;;;26.80;48.50;;;;;;5031278;28;20422;-78
2021/09/21 11:18:13;;;;;;;0.90;0.70;;;26.30;49.80;;;;;;5033000;28;20790;-77
2021/09/21 11:20:51;;;;;;;1.03;0.93;;;25.90;50.30;;;;;;5023410;28;20474;-77
2021/09/21 11:23:19;;;;;;;0.97;0.80;;;25.60;51.10;;;;;;5023934;28;20503;-78
2021/09/21 11:25:47;;;;;;;0.80;0.60;;;25.30;52.40;;;;;;5030647;28;20414;-78
2021/09/21 11:28:16;;;;;;;1.00;0.90;;;25.00;50.70;;;;;;5034673;28;20931;-77
2021/09/21 11:30:43;;;;;;;4.07;1.37;;;24.90;52.50;;;;;;5025010;28;20483;-78
2021/09/21 11:33:29;;;;;;;1.20;1.07;;;25.00;53.90;;;;;;5027830;28;20422;-78
2021/09/21 11:36:10;;;;;;;1.00;0.90;;;25.30;53.10;;;;;;5015129;28;20435;-78
2021/09/21 11:38:39;;;;;;;2.13;0.90;;;25.40;51.40;;;;;;5013638;28;20804;-78
2021/09/21 11:41:06;;;;;;;0.90;0.73;;;25.30;52.60;;;;;;5020652;28;20489;-77
2021/09/21 11:43:32;;;;;;;1.47;0.83;;;25.20;51.90;;;;;;5031712;28;20454;-77
2021/09/21 11:45:58;;;;;;;0.90;0.80;;;25.20;51.50;;;;;;5033678;28;20894;-79
2021/09/21 11:48:24;;;;;;;1.10;0.83;;;25.00;53.00;;;;;;5035656;28;20915;-78
2021/09/21 11:50:51;;;;;;;3.10;0.67;;;24.80;54.10;;;;;;5034507;28;20502;-77
2021/09/21 11:53:24;;;;;;;0.87;0.67;;;24.90;56.60;;;;;;5035006;28;20254;-78
2021/09/21 11:55:58;;;;;;;1.03;0.93;;;25.10;55.80;;;;;;5028273;28;20434;-77
2021/09/21 11:58:25;;;;;;;0.90;0.60;;;25.10;53.60;;;;;;5033891;28;20448;-78
2021/09/21 12:00:53;;;;;;;1.10;0.80;;;25.30;56.20;;;;;;5032917;28;20829;-78
2021/09/21 12:03:22;;;;;;;1.20;1.00;;;25.60;55.70;;;;;;5033077;28;20454;-78
2021/09/21 12:05:51;;;;;;;0.90;0.70;;;26.10;54.70;;;;;;5035284;28;20410;-78
2021/09/21 12:08:30;;;;;;;0.90;0.70;;;26.30;53.60;;;;;;5032445;28;20426;-78
2021/09/21 12:11:03;;;;;;;0.87;0.67;;;26.60;53.30;;;;;;5031366;28;20519;-79
2021/09/21 12:13:29;;;;;;;1.27;1.07;;;26.90;53.80;;;;;;5036703;28;20445;-78
2021/09/21 12:15:58;;;;;;;0.80;0.60;;;27.50;52.40;;;;;;5040933;28;20442;-78
2021/09/21 12:18:25;;;;;;;4.63;1.63;;;27.50;51.30;;;;;;5041629;28;20699;-79
2021/09/21 12:20:55;;;;;;;1.33;1.07;;;27.80;52.50;;;;;;5030713;28;20948;-78
2021/09/21 12:23:27;;;;;;;1.00;0.80;;;28.10;51.50;;;;;;5029463;28;20478;-78
2021/09/21 12:25:54;;;;;;;1.00;0.60;;;28.30;50.20;;;;;;5022438;28;20407;-79
2021/09/21 12:28:29;;;;;;;0.90;0.70;;;28.10;51.60;;;;;;5022523;28;20457;-79
2021/09/21 12:30:55;;;;;;;1.50;1.00;;;28.20;49.90;;;;;;5027093;28;20438;-79
2021/09/21 12:33:21;;;;;;;0.90;0.63;;;28.20;51.50;;;;;;5029296;28;20434;-78
2021/09/21 12:35:50;;;;;;;1.03;0.90;;;28.00;47.50;;;;;;5038676;28;20440;-79
2021/09/21 12:38:22;;;;;;;1.20;0.90;;;27.80;49.20;;;;;;5037476;28;20176;-78
2021/09/21 12:40:59;;;;;;;0.87;0.70;;;27.80;49.50;;;;;;5040165;28;20418;-78
2021/09/21 12:43:29;;;;;;;1.33;0.80;;;27.50;47.90;;;;;;5037401;28;20823;-78
2021/09/21 12:46:05;;;;;;;1.33;1.23;;;27.50;48.50;;;;;;5038032;28;20462;-79
2021/09/21 12:48:38;;;;;;;1.07;0.97;;;27.60;50.10;;;;;;5039541;28;20416;-79
2021/09/21 12:51:05;;;;;;;2.13;0.70;;;27.70;52.30;;;;;;5032851;28;20867;-79
2021/09/21 12:53:31;;;;;;;0.90;0.70;;;27.90;50.90;;;;;;5022657;28;20430;-79
2021/09/21 12:55:59;;;;;;;1.00;0.67;;;28.10;52.90;;;;;;5029737;28;20449;-80
2021/09/21 12:58:27;;;;;;;0.90;0.70;;;28.70;52.30;;;;;;5028088;28;20445;-79
2021/09/21 13:00:53;;;;;;;1.03;0.80;;;28.90;49.90;;;;;;5028826;28;20499;-79
2021/09/21 13:03:21;;;;;;;1.10;0.60;;;29.10;50.90;;;;;;5027628;28;20856;-79